Time;durP1;ratioP1;P1;durP2;ratioP2;P2;SDS_P1;SDS_P2;PMS_P1;PMS_P2;Temp;Humidity;BMP_temperature;BMP_pressure;BME280_temperature;BME280_humidity;BME280_pressure;Samples;Min_cycle;Max_cycle;Signal;HPM_P1;HPM_P2
2023/01/03 05:30:13;;;;;;;;;5.00;4.00;;;;;-147.14;100.00;58812.66;6160795;22;46408;-57
2023/01/03 05:32:38;;;;;;;;;7.67;6.67;;;;;-147.14;100.00;58812.66;6214916;22;45343;-60
2023/01/03 05:35:04;;;;;;;;;7.00;5.00;;;;;-147.14;100.00;58812.66;6215938;22;65694;-59
2023/01/03 05:37:29;;;;;;;;;4.00;4.00;;;;;-147.14;100.00;58812.66;6216234;22;45277;-60
2023/01/03 05:39:55;;;;;;;;;13.33;8.00;;;;;-147.14;100.00;58812.66;6217018;22;45276;-61
2023/01/03 05:42:20;;;;;;;;;11.00;5.67;;;;;-147.14;100.00;58812.66;6216492;22;52700;-61
2023/01/03 05:44:45;;;;;;;;;8.67;5.33;;;;;-147.14;100.00;58812.66;6215937;22;66079;-61
2023/01/03 05:47:11;;;;;;;;;8.67;6.33;;;;;-147.14;100.00;58812.66;6217050;22;45412;-61
2023/01/03 05:49:37;;;;;;;;;5.00;5.00;;;;;-147.14;100.00;58812.66;6217037;22;45550;-61
2023/01/03 05:52:03;;;;;;;;;6.00;5.00;;;;;-147.14;100.00;58812.66;6187624;22;60723;-61
2023/01/03 05:54:28;;;;;;;;;5.33;5.33;;;;;-147.14;100.00;58812.66;6215931;22;45360;-61
2023/01/03 05:56:53;;;;;;;;;7.00;5.00;;;;;-147.14;100.00;58812.66;6216023;22;47992;-61
2023/01/03 05:59:21;;;;;;;;;4.00;4.00;;;;;-147.14;100.00;58812.66;6216983;22;45326;-61
2023/01/03 06:01:46;;;;;;;;;5.33;5.33;;;;;-147.14;100.00;58812.66;6189514;22;47872;-61
2023/01/03 06:04:12;;;;;;;;;9.67;6.00;;;;;-147.14;100.00;58812.66;6216364;22;45341;-61
2023/01/03 06:06:37;;;;;;;;;6.67;5.33;;;;;-147.14;100.00;58812.66;6216104;22;45704;-61
2023/01/03 06:09:02;;;;;;;;;6.67;6.00;;;;;-147.14;100.00;58812.66;6216394;22;45242;-61
2023/01/03 06:11:28;;;;;;;;;6.33;6.00;;;;;-147.14;100.00;58812.66;6216043;22;53991;-61
2023/01/03 06:13:53;;;;;;;;;6.00;4.67;;;;;-147.14;100.00;58812.66;6215491;22;61409;-61
2023/01/03 06:19:04;;;;;;;;;6.00;6.00;;;;;-147.14;100.00;58812.66;6216858;22;45293;-60
2023/01/03 06:21:29;;;;;;;;;5.00;5.00;;;;;-147.14;100.00;58812.66;6215813;22;45837;-60
2023/01/03 06:23:55;;;;;;;;;5.33;5.33;;;;;-147.14;100.00;58812.66;6213237;22;61423;-60
2023/01/03 06:26:22;;;;;;;;;10.67;6.67;;;;;-147.14;100.00;58812.66;6211192;22;55570;-60
2023/01/03 06:28:48;;;;;;;;;6.33;6.33;;;;;-147.14;100.00;58812.66;6217357;22;45577;-60
2023/01/03 06:31:13;;;;;;;;;7.00;5.00;;;;;-147.14;100.00;58812.66;6227991;22;46139;-61
2023/01/03 06:33:39;;;;;;;;;8.67;6.00;;;;;-147.14;100.00;58812.66;6244461;22;59741;-61
2023/01/03 06:36:10;;;;;;;;;6.00;6.00;;;;;-147.14;100.00;58812.66;6243356;22;52033;-61
2023/01/03 06:38:35;;;;;;;;;6.00;5.67;;;;;-147.14;100.00;58812.66;6244029;22;45287;-61
2023/01/03 06:41:01;;;;;;;;;6.67;5.00;;;;;-147.14;100.00;58812.66;6244015;22;66534;-61
2023/01/03 06:43:27;;;;;;;;;7.67;7.33;;;;;-147.14;100.00;58812.66;6245440;22;45554;-60
2023/01/03 06:54:06;;;;;;;;;7.00;5.67;;;;;-147.14;100.00;58812.66;6246309;22;45245;-61
2023/01/03 06:56:32;;;;;;;;;8.00;5.33;;;;;-147.14;100.00;58812.66;6218448;22;45317;-64
2023/01/03 06:58:57;;;;;;;;;11.33;8.00;;;;;-147.14;100.00;58812.66;6245929;22;59783;-60
2023/01/03 07:01:22;;;;;;;;;7.67;7.33;;;;;-147.14;100.00;58812.66;6220138;22;45290;-59
2023/01/03 07:03:48;;;;;;;;;6.33;6.33;;;;;-147.14;100.00;58812.66;6217974;22;64827;-60
2023/01/03 07:06:13;;;;;;;;;7.33;3.00;;;;;-147.14;100.00;58812.66;6246746;22;45704;-61
2023/01/03 07:08:38;;;;;;;;;6.33;6.33;;;;;-147.14;100.00;58812.66;6245564;22;49838;-61
2023/01/03 07:11:04;;;;;;;;;5.67;5.67;;;;;-147.14;100.00;58812.66;6242632;22;62918;-60
2023/01/03 07:16:17;;;;;;;;;4.33;4.33;;;;;-147.14;100.00;58812.66;6246704;22;45375;-60
2023/01/03 07:18:43;;;;;;;;;7.00;6.00;;;;;-147.14;100.00;58812.66;6245405;22;45792;-60
2023/01/03 07:21:09;;;;;;;;;8.00;6.67;;;;;-147.14;100.00;58812.66;6246311;22;45296;-60
2023/01/03 07:23:34;;;;;;;;;9.67;7.33;;;;;-147.14;100.00;58812.66;6245482;22;45435;-60
2023/01/03 07:26:00;;;;;;;;;7.00;7.00;;;;;-147.14;100.00;58812.66;6245447;22;61269;-60
2023/01/03 07:28:25;;;;;;;;;12.00;7.00;;;;;-147.14;100.00;58812.66;6246291;22;45209;-60
2023/01/03 07:30:50;;;;;;;;;10.67;9.33;;;;;-147.14;100.00;58812.66;6245182;22;45505;-61
2023/01/03 07:33:17;;;;;;;;;2.67;2.33;;;;;-147.14;100.00;58812.66;6245620;22;49673;-60
2023/01/03 07:35:42;;;;;;;;;5.00;5.00;;;;;-147.14;100.00;58812.66;6246003;22;45364;-60
2023/01/03 07:38:09;;;;;;;;;9.67;6.00;;;;;-147.14;100.00;58812.66;6244971;22;61257;-60
2023/01/03 07:40:34;;;;;;;;;8.00;8.00;;;;;-147.14;100.00;58812.66;6245109;22;46014;-60
2023/01/03 07:45:44;;;;;;;;;9.67;7.67;;;;;-147.14;100.00;58812.66;6245456;22;45326;-61
2023/01/03 07:48:10;;;;;;;;;7.00;7.00;;;;;-147.14;100.00;58812.66;6245927;22;45397;-59
2023/01/03 07:50:36;;;;;;;;;8.33;7.00;;;;;-147.14;100.00;58812.66;6245449;22;46301;-60
2023/01/03 07:53:02;;;;;;;;;10.00;6.00;;;;;-147.14;100.00;58812.66;6244718;22;45261;-60
2023/01/03 07:55:28;;;;;;;;;11.67;8.00;;;;;-147.14;100.00;58812.66;6245388;22;45434;-60
2023/01/03 07:57:55;;;;;;;;;9.00;7.67;;;;;-147.14;100.00;58812.66;6245208;22;45306;-58
2023/01/03 08:00:20;;;;;;;;;14.33;8.00;;;;;-147.14;100.00;58812.66;6243859;22;45376;-60
2023/01/03 08:02:46;;;;;;;;;12.67;10.00;;;;;-147.14;100.00;58812.66;6245731;22;45229;-61
2023/01/03 08:05:11;;;;;;;;;9.67;7.67;;;;;-147.14;100.00;58812.66;6246342;22;45450;-60
2023/01/03 08:07:37;;;;;;;;;14.00;6.33;;;;;-147.14;100.00;58812.66;6245003;22;54816;-61
2023/01/03 08:15:30;;;;;;;;;12.67;9.33;;;;;-147.14;100.00;58812.66;6245659;22;45288;-60
2023/01/03 08:17:56;;;;;;;;;12.00;7.00;;;;;-147.14;100.00;58812.66;6244590;22;60536;-60
2023/01/03 08:20:21;;;;;;;;;5.67;4.67;;;;;-147.14;100.00;58812.66;6245618;22;67745;-60
2023/01/03 08:22:46;;;;;;;;;8.00;7.33;;;;;-147.14;100.00;58812.66;6244980;22;64204;-61
2023/01/03 08:25:12;;;;;;;;;8.33;8.33;;;;;-147.14;100.00;58812.66;6246139;22;45273;-60
2023/01/03 08:27:37;;;;;;;;;11.00;9.67;;;;;-147.14;100.00;58812.66;6245430;22;45157;-60
2023/01/03 08:30:03;;;;;;;;;8.00;8.00;;;;;-147.14;100.00;58812.66;6245345;22;66861;-60
2023/01/03 08:32:30;;;;;;;;;5.67;4.00;;;;;-147.14;100.00;58812.66;6245060;22;45331;-61
2023/01/03 08:34:55;;;;;;;;;11.00;9.00;;;;;-147.14;100.00;58812.66;6246215;22;45442;-60
2023/01/03 08:37:21;;;;;;;;;8.33;7.33;;;;;-147.14;100.00;58812.66;6245088;22;60836;-60
2023/01/03 08:39:50;;;;;;;;;13.67;11.33;;;;;-147.14;100.00;58812.66;6217306;22;65444;-60
2023/01/03 08:42:19;;;;;;;;;5.67;3.00;;;;;-147.14;100.00;58812.66;6246155;22;45288;-61
2023/01/03 08:44:45;;;;;;;;;7.33;6.67;;;;;-147.14;100.00;58812.66;6217823;22;45663;-61
2023/01/03 08:47:12;;;;;;;;;10.00;9.67;;;;;-147.14;100.00;58812.66;6246308;22;45375;-61
2023/01/03 08:49:38;;;;;;;;;9.33;8.00;;;;;-147.14;100.00;58812.66;6244241;22;66614;-61
2023/01/03 08:52:03;;;;;;;;;7.00;5.00;;;;;-147.14;100.00;58812.66;6217925;22;45356;-61
2023/01/03 08:54:29;;;;;;;;;7.33;7.00;;;;;-147.14;100.00;58812.66;6245761;22;45376;-61
2023/01/03 08:56:54;;;;;;;;;10.00;8.33;;;;;-147.14;100.00;58812.66;6244929;22;62240;-60
2023/01/03 08:59:20;;;;;;;;;8.67;6.67;;;;;-147.14;100.00;58812.66;6245232;22;64560;-60
2023/01/03 09:01:45;;;;;;;;;11.00;9.00;;;;;-147.14;100.00;58812.66;6245306;22;45312;-61
2023/01/03 09:04:10;;;;;;;;;6.33;6.33;;;;;-147.14;100.00;58812.66;6219243;22;45255;-61
2023/01/03 09:06:36;;;;;;;;;7.67;7.00;;;;;-147.14;100.00;58812.66;6244863;22;56371;-62
2023/01/03 09:09:06;;;;;;;;;9.00;6.67;;;;;-147.14;100.00;58812.66;6245901;22;53411;-62
2023/01/03 09:11:31;;;;;;;;;7.33;6.00;;;;;-147.14;100.00;58812.66;6244563;22;45365;-62
2023/01/03 09:13:57;;;;;;;;;6.33;6.33;;;;;-147.14;100.00;58812.66;6246012;22;45265;-62
2023/01/03 09:16:22;;;;;;;;;6.00;5.67;;;;;-147.14;100.00;58812.66;6244876;22;63757;-61
2023/01/03 09:18:47;;;;;;;;;5.00;5.00;;;;;-147.14;100.00;58812.66;6241806;22;53841;-61
2023/01/03 09:21:13;;;;;;;;;9.00;7.33;;;;;-147.14;100.00;58812.66;6246098;22;45269;-61
2023/01/03 09:23:38;;;;;;;;;8.00;8.00;;;;;-147.14;100.00;58812.66;6245286;22;45591;-61
2023/01/03 09:26:04;;;;;;;;;9.67;7.67;;;;;-147.14;100.00;58812.66;6218150;22;45412;-61
2023/01/03 09:28:29;;;;;;;;;8.00;7.67;;;;;-147.14;100.00;58812.66;6245204;22;46035;-61
2023/01/03 09:30:55;;;;;;;;;6.00;6.00;;;;;-147.14;100.00;58812.66;6217994;22;45305;-61
2023/01/03 09:33:20;;;;;;;;;9.00;7.00;;;;;-147.14;100.00;58812.66;6245662;22;45442;-61
2023/01/03 09:35:46;;;;;;;;;7.67;7.00;;;;;-147.14;100.00;58812.66;6244188;22;58399;-61
2023/01/03 09:38:11;;;;;;;;;10.00;8.67;;;;;-147.14;100.00;58812.66;6218710;22;46622;-61
2023/01/03 09:40:42;;;;;;;;;6.67;6.67;;;;;-147.14;100.00;58812.66;6243886;22;59592;-61
2023/01/03 09:43:33;;;;;;;;;5.67;5.00;;;;;-147.14;100.00;58812.66;6193254;22;45274;-61
2023/01/03 09:46:00;;;;;;;;;8.00;6.33;;;;;-147.14;100.00;58812.66;6245582;22;45277;-61
2023/01/03 09:48:35;;;;;;;;;6.00;6.00;;;;;-147.14;100.00;58812.66;6245089;22;47026;-61
2023/01/03 09:51:01;;;;;;;;;7.00;6.00;;;;;-147.14;100.00;58812.66;6245536;22;45307;-61
2023/01/03 10:04:52;;;;;;;;;6.00;6.00;;;;;-147.14;100.00;58812.66;6248393;22;45704;-61
2023/01/03 10:07:37;;;;;;;;;9.00;7.00;;;;;-147.14;100.00;58812.66;6247186;22;45422;-61
2023/01/03 10:10:17;;;;;;;;;7.00;6.67;;;;;-147.14;100.00;58812.66;6221450;22;45607;-61
2023/01/03 10:12:51;;;;;;;;;8.33;6.00;;;;;-147.14;100.00;58812.66;6221031;22;45293;-61
2023/01/03 10:15:26;;;;;;;;;6.00;5.00;;;;;-147.14;100.00;58812.66;6221318;22;45699;-61
2023/01/03 10:18:05;;;;;;;;;6.00;6.00;;;;;-147.14;100.00;58812.66;6248644;22;45315;-61
2023/01/03 10:20:34;;;;;;;;;2.00;2.00;;;;;-147.14;100.00;58812.66;6247680;22;46885;-61
2023/01/03 10:22:59;;;;;;;;;5.00;5.00;;;;;-147.14;100.00;58812.66;6249050;22;45382;-61
2023/01/03 10:25:27;;;;;;;;;5.00;5.00;;;;;-147.14;100.00;58812.66;6221410;22;45608;-61
2023/01/03 10:28:00;;;;;;;;;7.33;7.00;;;;;-147.14;100.00;58812.66;6248753;22;45237;-61
2023/01/03 10:30:53;;;;;;;;;8.67;7.33;;;;;-147.14;100.00;58812.66;6248226;22;45909;-61
2023/01/03 10:33:27;;;;;;;;;7.00;5.00;;;;;-147.14;100.00;58812.66;6248788;22;45385;-61
2023/01/03 10:35:52;;;;;;;;;5.67;5.00;;;;;-147.14;100.00;58812.66;6248643;22;45359;-61
2023/01/03 10:38:21;;;;;;;;;9.00;6.00;;;;;-147.14;100.00;58812.66;6248740;22;45375;-61
2023/01/03 10:40:50;;;;;;;;;8.33;6.00;;;;;-147.14;100.00;58812.66;6220520;22;46298;-61
2023/01/03 10:43:26;;;;;;;;;7.67;7.33;;;;;-147.14;100.00;58812.66;6248089;22;45322;-62
2023/01/03 10:46:01;;;;;;;;;7.00;6.00;;;;;-147.14;100.00;58812.66;6248234;22;45226;-62
2023/01/03 10:48:38;;;;;;;;;7.33;5.00;;;;;-147.14;100.00;58812.66;6219512;22;45548;-62
2023/01/03 10:51:05;;;;;;;;;4.67;4.67;;;;;-147.14;100.00;58812.66;6248313;22;45306;-62
2023/01/03 10:53:35;;;;;;;;;5.00;5.00;;;;;-147.14;100.00;58812.66;6221147;22;45262;-62
2023/01/03 10:56:01;;;;;;;;;4.33;4.33;;;;;-147.14;100.00;58812.66;6220962;22;45366;-62
2023/01/03 10:58:27;;;;;;;;;7.00;7.00;;;;;-147.14;100.00;58812.66;6221210;22;45638;-62
2023/01/03 11:00:54;;;;;;;;;8.00;4.33;;;;;-147.14;100.00;58812.66;6248447;22;46073;-62
2023/01/03 11:03:22;;;;;;;;;4.00;4.00;;;;;-147.14;100.00;58812.66;6220729;22;45357;-61
2023/01/03 11:06:08;;;;;;;;;3.67;3.33;;;;;-147.14;100.00;58812.66;6248320;22;45388;-61
2023/01/03 11:08:47;;;;;;;;;5.00;4.00;;;;;-147.14;100.00;58812.66;6192892;22;45302;-61
2023/01/03 11:11:28;;;;;;;;;4.67;4.00;;;;;-147.14;100.00;58812.66;6245724;22;46129;-62
2023/01/03 11:14:04;;;;;;;;;5.33;5.33;;;;;-147.14;100.00;58812.66;6219020;22;45344;-61
2023/01/03 11:16:31;;;;;;;;;4.00;4.00;;;;;-147.14;100.00;58812.66;6246210;22;45149;-62
2023/01/03 11:19:02;;;;;;;;;7.00;5.67;;;;;-147.14;100.00;58812.66;6245932;22;60149;-61
2023/01/03 11:21:32;;;;;;;;;6.67;5.33;;;;;-147.14;100.00;58812.66;6245439;22;46388;-61
2023/01/03 11:24:30;;;;;;;;;9.00;5.33;;;;;-147.14;100.00;58812.66;6246436;22;45212;-61
2023/01/03 11:27:47;;;;;;;;;6.33;4.33;;;;;-147.14;100.00;58812.66;6218945;22;45734;-61
2023/01/03 11:30:48;;;;;;;;;6.00;6.00;;;;;-147.14;100.00;58812.66;6145988;22;45210;-62
2023/01/03 11:33:26;;;;;;;;;4.00;4.00;;;;;-147.14;100.00;58812.66;6239691;22;45296;-61
2023/01/03 11:36:04;;;;;;;;;6.67;3.33;;;;;-147.14;100.00;58812.66;6245690;22;45390;-61
2023/01/03 11:38:40;;;;;;;;;3.33;2.67;;;;;-147.14;100.00;58812.66;6218403;22;45321;-62
2023/01/03 11:41:28;;;;;;;;;6.33;5.00;;;;;-147.14;100.00;58812.66;6218244;22;45787;-62
2023/01/03 11:43:53;;;;;;;;;9.33;5.67;;;;;-147.14;100.00;58812.66;6245863;22;45332;-62
2023/01/03 11:46:31;;;;;;;;;4.00;4.00;;;;;-147.14;100.00;58812.66;6246340;22;45271;-62
2023/01/03 11:49:32;;;;;;;;;6.33;5.00;;;;;-147.14;100.00;58812.66;6217817;22;45750;-62
2023/01/03 11:52:13;;;;;;;;;6.00;4.67;;;;;-147.14;100.00;58812.66;6218839;22;45543;-62
2023/01/03 11:54:56;;;;;;;;;6.00;4.67;;;;;-147.14;100.00;58812.66;6245177;22;45613;-61
2023/01/03 11:57:57;;;;;;;;;5.00;5.00;;;;;-147.14;100.00;58812.66;6245768;22;45335;-61
2023/01/03 12:00:25;;;;;;;;;6.67;4.33;;;;;-147.14;100.00;58812.66;6219376;22;45266;-62
2023/01/03 12:03:03;;;;;;;;;6.67;4.33;;;;;-147.14;100.00;58812.66;6245737;22;45396;-62
2023/01/03 12:05:43;;;;;;;;;6.00;4.00;;;;;-147.14;100.00;58812.66;6192949;22;46215;-61
2023/01/03 12:08:35;;;;;;;;;4.67;3.00;;;;;-147.14;100.00;58812.66;6193556;22;45333;-61
2023/01/03 12:11:20;;;;;;;;;5.67;5.67;;;;;-147.14;100.00;58812.66;6245344;22;45415;-62
2023/01/03 12:13:57;;;;;;;;;4.50;4.50;;;;;-147.14;100.00;58812.66;6218369;22;45363;-62
2023/01/03 12:16:32;;;;;;;;;7.00;4.00;;;;;-147.14;100.00;58812.66;6245532;22;46082;-61
2023/01/03 12:19:16;;;;;;;;;4.33;3.33;;;;;-147.14;100.00;58812.66;6218699;22;45340;-62
2023/01/03 12:21:52;;;;;;;;;4.33;3.67;;;;;-147.14;100.00;58812.66;6245903;22;45748;-61
2023/01/03 12:24:27;;;;;;;;;4.00;4.00;;;;;-147.14;100.00;58812.66;6194384;22;45507;-61
2023/01/03 12:26:56;;;;;;;;;3.00;3.00;;;;;-147.14;100.00;58812.66;6245192;22;45371;-61
2023/01/03 12:29:30;;;;;;;;;6.33;4.33;;;;;-147.14;100.00;58812.66;6246182;22;45355;-61
2023/01/03 12:32:09;;;;;;;;;5.67;4.00;;;;;-147.14;100.00;58812.66;6218680;22;45390;-61
2023/01/03 12:34:49;;;;;;;;;3.00;3.00;;;;;-147.14;100.00;58812.66;6218178;22;45285;-61
2023/01/03 12:37:20;;;;;;;;;4.00;4.00;;;;;-147.14;100.00;58812.66;6218774;22;45793;-61
2023/01/03 12:39:59;;;;;;;;;4.00;3.00;;;;;-147.14;100.00;58812.66;6245056;22;45347;-61
2023/01/03 12:42:32;;;;;;;;;4.67;4.00;;;;;-147.14;100.00;58812.66;6219106;22;45370;-61
2023/01/03 12:45:24;;;;;;;;;4.67;3.67;;;;;-147.14;100.00;58812.66;6219322;22;45387;-61
2023/01/03 12:48:12;;;;;;;;;4.33;3.00;;;;;-147.14;100.00;58812.66;6218303;22;45261;-62
2023/01/03 12:50:46;;;;;;;;;4.67;4.00;;;;;-147.14;100.00;58812.66;6245531;22;45212;-62
2023/01/03 12:53:14;;;;;;;;;5.00;3.67;;;;;-147.14;100.00;58812.66;6246008;22;45253;-63
2023/01/03 12:56:03;;;;;;;;;5.67;3.00;;;;;-147.14;100.00;58812.66;6244927;22;45388;-61
2023/01/03 12:58:58;;;;;;;;;8.00;4.00;;;;;-147.14;100.00;58812.66;6217841;22;45327;-61
2023/01/03 13:01:27;;;;;;;;;3.67;3.00;;;;;-147.14;100.00;58812.66;6245532;22;45250;-61
2023/01/03 13:04:01;;;;;;;;;5.67;4.00;;;;;-147.14;100.00;58812.66;6218833;22;45397;-61
2023/01/03 13:06:38;;;;;;;;;6.33;3.67;;;;;-147.14;100.00;58812.66;6218668;22;45377;-60
2023/01/03 13:09:07;;;;;;;;;4.00;4.00;;;;;-147.14;100.00;58812.66;6219165;22;45956;-61
2023/01/03 13:11:44;;;;;;;;;4.00;4.00;;;;;-147.14;100.00;58812.66;6217934;22;45441;-61
2023/01/03 13:14:26;;;;;;;;;4.00;3.00;;;;;-147.14;100.00;58812.66;6218737;22;45310;-62
2023/01/03 13:17:19;;;;;;;;;5.00;3.00;;;;;-147.14;100.00;58812.66;6218855;22;45385;-61
2023/01/03 13:19:57;;;;;;;;;8.33;5.00;;;;;-147.14;100.00;58812.66;6240140;22;46197;-60
2023/01/03 13:22:49;;;;;;;;;5.67;5.00;;;;;-147.14;100.00;58812.66;6218478;22;45190;-60
2023/01/03 13:25:38;;;;;;;;;10.00;5.00;;;;;-147.14;100.00;58812.66;6245353;22;45261;-62
2023/01/03 13:28:23;;;;;;;;;7.67;4.00;;;;;-147.14;100.00;58812.66;6243919;22;45471;-61
2023/01/03 13:31:16;;;;;;;;;3.67;3.67;;;;;-147.14;100.00;58812.66;6231949;22;45369;-61
2023/01/03 13:34:10;;;;;;;;;3.00;3.00;;;;;-147.14;100.00;58812.66;6244642;22;45270;-61
2023/01/03 13:37:00;;;;;;;;;5.67;4.00;;;;;-147.14;100.00;58812.66;6216267;22;45448;-61
2023/01/03 13:39:42;;;;;;;;;5.33;5.00;;;;;-147.14;100.00;58812.66;6246223;22;45611;-60
2023/01/03 13:42:19;;;;;;;;;5.00;5.00;;;;;-147.14;100.00;58812.66;6245408;22;45319;-61
2023/01/03 13:44:44;;;;;;;;;7.00;4.50;;;;;-147.14;100.00;58812.66;6245258;22;45379;-61
2023/01/03 13:47:33;;;;;;;;;4.67;3.33;;;;;-147.14;100.00;58812.66;6245196;22;55276;-61
2023/01/03 13:49:59;;;;;;;;;5.00;4.00;;;;;-147.14;100.00;58812.66;6192996;22;45678;-60
2023/01/03 13:52:37;;;;;;;;;6.00;4.00;;;;;-147.14;100.00;58812.66;6244655;22;66686;-61
2023/01/03 13:55:03;;;;;;;;;4.00;0.67;;;;;-147.14;100.00;58812.66;6218416;22;45356;-61
2023/01/03 13:57:36;;;;;;;;;5.00;5.00;;;;;-147.14;100.00;58812.66;6245480;22;45328;-61
2023/01/03 14:00:09;;;;;;;;;8.00;4.00;;;;;-147.14;100.00;58812.66;6245649;22;45335;-61
2023/01/03 14:02:53;;;;;;;;;7.00;3.67;;;;;-147.14;100.00;58812.66;6217477;22;45369;-61
2023/01/03 14:05:39;;;;;;;;;4.00;3.00;;;;;-147.14;100.00;58812.66;6243956;22;45169;-61
2023/01/03 14:08:16;;;;;;;;;7.33;5.67;;;;;-147.14;100.00;58812.66;6218255;22;45693;-61
2023/01/03 14:10:53;;;;;;;;;5.00;3.00;;;;;-147.14;100.00;58812.66;6217213;22;45457;-60
2023/01/03 14:13:38;;;;;;;;;3.33;3.33;;;;;-147.14;100.00;58812.66;6245596;22;45339;-60
2023/01/03 14:16:42;;;;;;;;;3.33;3.33;;;;;-147.14;100.00;58812.66;6245119;22;45478;-60
2023/01/03 14:19:31;;;;;;;;;3.33;1.67;;;;;-147.14;100.00;58812.66;6245422;22;45312;-60
2023/01/03 14:22:00;;;;;;;;;5.00;2.67;;;;;-147.14;100.00;58812.66;6218716;22;45496;-61
2023/01/03 14:24:33;;;;;;;;;5.00;2.00;;;;;-147.14;100.00;58812.66;6217808;22;45435;-60
2023/01/03 14:27:12;;;;;;;;;4.00;2.67;;;;;-147.14;100.00;58812.66;6244764;22;45536;-61
2023/01/03 14:29:40;;;;;;;;;4.00;3.00;;;;;-147.14;100.00;58812.66;6217785;22;45337;-61
2023/01/03 14:32:06;;;;;;;;;3.00;2.00;;;;;-147.14;100.00;58812.66;6217562;22;45576;-61
2023/01/03 14:34:36;;;;;;;;;4.00;3.00;;;;;-147.14;100.00;58812.66;6217509;22;45203;-61
2023/01/03 14:37:13;;;;;;;;;2.33;2.00;;;;;-147.14;100.00;58812.66;6217737;22;45376;-61
2023/01/03 14:39:38;;;;;;;;;3.00;2.00;;;;;-147.14;100.00;58812.66;6217154;22;45431;-61
2023/01/03 14:42:06;;;;;;;;;3.00;3.00;;;;;-147.14;100.00;58812.66;6244996;22;45150;-61
2023/01/03 14:44:33;;;;;;;;;3.33;1.67;;;;;-147.14;100.00;58812.66;6245736;22;45536;-61
2023/01/03 14:47:02;;;;;;;;;4.00;3.00;;;;;-147.14;100.00;58812.66;6246155;22;45119;-61
2023/01/03 14:49:44;;;;;;;;;3.67;3.00;;;;;-147.14;100.00;58812.66;6245935;22;45317;-61
2023/01/03 14:52:15;;;;;;;;;3.00;3.00;;;;;-147.14;100.00;58812.66;6245986;22;45382;-61
2023/01/03 14:54:46;;;;;;;;;4.67;4.00;;;;;-147.14;100.00;58812.66;6245228;22;46777;-61
2023/01/03 14:57:26;;;;;;;;;3.00;3.00;;;;;-147.14;100.00;58812.66;6246262;22;45261;-61
2023/01/03 14:59:54;;;;;;;;;4.00;3.00;;;;;-147.14;100.00;58812.66;6245296;22;45331;-60
2023/01/03 15:02:19;;;;;;;;;3.33;3.00;;;;;-147.14;100.00;58812.66;6219556;22;45397;-60
2023/01/03 15:04:51;;;;;;;;;3.00;3.00;;;;;-147.14;100.00;58812.66;6219283;22;45309;-60
2023/01/03 15:07:30;;;;;;;;;5.00;5.00;;;;;-147.14;100.00;58812.66;6219963;22;45613;-59
2023/01/03 15:10:08;;;;;;;;;3.00;3.00;;;;;-147.14;100.00;58812.66;6219481;22;45359;-59
2023/01/03 15:12:36;;;;;;;;;6.33;3.00;;;;;-147.14;100.00;58812.66;6245563;22;45491;-61
2023/01/03 15:15:19;;;;;;;;;2.00;2.00;;;;;-147.14;100.00;58812.66;6219388;22;45344;-63
2023/01/03 15:17:47;;;;;;;;;4.67;3.00;;;;;-147.14;100.00;58812.66;6245615;22;45233;-61
2023/01/03 15:20:16;;;;;;;;;3.67;3.67;;;;;-147.14;100.00;58812.66;6218971;22;45602;-60
2023/01/03 15:22:41;;;;;;;;;6.00;3.67;;;;;-147.14;100.00;58812.66;6218615;22;45436;-60
2023/01/03 15:25:16;;;;;;;;;4.00;4.00;;;;;-147.14;100.00;58812.66;6245233;22;46102;-60
2023/01/03 15:27:44;;;;;;;;;3.67;3.00;;;;;-147.14;100.00;58812.66;6218465;22;45487;-60
2023/01/03 15:30:22;;;;;;;;;5.67;3.33;;;;;-147.14;100.00;58812.66;6218855;22;45300;-60
2023/01/03 15:32:51;;;;;;;;;9.00;5.00;;;;;-147.14;100.00;58812.66;6244949;22;45780;-60
2023/01/03 15:35:21;;;;;;;;;5.33;4.67;;;;;-147.14;100.00;58812.66;6218789;22;46026;-59
2023/01/03 15:37:51;;;;;;;;;5.00;4.00;;;;;-147.14;100.00;58812.66;6245886;22;45373;-59
2023/01/03 15:40:16;;;;;;;;;5.00;4.33;;;;;-147.14;100.00;58812.66;6219144;22;45365;-60
2023/01/03 15:45:31;;;;;;;;;9.33;4.33;;;;;-147.14;100.00;58812.66;6222559;22;45418;-60
2023/01/03 15:47:59;;;;;;;;;2.67;2.00;;;;;-147.14;100.00;58812.66;6193067;22;45231;-58
2023/01/03 15:50:37;;;;;;;;;4.00;4.00;;;;;-147.14;100.00;58812.66;6218980;22;45287;-59
2023/01/03 15:53:03;;;;;;;;;3.33;3.00;;;;;-147.14;100.00;58812.66;6218916;22;45415;-59
2023/01/03 15:55:28;;;;;;;;;3.00;3.00;;;;;-147.14;100.00;58812.66;6244216;22;65753;-59
2023/01/03 15:57:53;;;;;;;;;8.00;5.00;;;;;-147.14;100.00;58812.66;6245888;22;45259;-59
2023/01/03 16:00:20;;;;;;;;;5.00;3.00;;;;;-147.14;100.00;58812.66;6245270;22;58928;-59
2023/01/03 16:02:47;;;;;;;;;5.00;3.67;;;;;-147.14;100.00;58812.66;6216779;22;45308;-60
2023/01/03 16:05:13;;;;;;;;;5.00;3.00;;;;;-147.14;100.00;58812.66;6219264;22;46143;-60
2023/01/03 16:07:39;;;;;;;;;8.33;5.00;;;;;-147.14;100.00;58812.66;6217995;22;45614;-60
2023/01/03 16:10:09;;;;;;;;;4.67;4.67;;;;;-147.14;100.00;58812.66;6217666;22;45336;-60
2023/01/03 16:12:36;;;;;;;;;4.00;4.00;;;;;-147.14;100.00;58812.66;6217492;22;45396;-60
2023/01/03 16:15:03;;;;;;;;;6.67;5.33;;;;;-147.14;100.00;58812.66;6218762;22;45364;-59
2023/01/03 16:17:29;;;;;;;;;5.33;5.33;;;;;-147.14;100.00;58812.66;6215786;22;45916;-60
2023/01/03 16:19:55;;;;;;;;;6.67;4.67;;;;;-147.14;100.00;58812.66;6218061;22;57176;-60
2023/01/03 16:22:22;;;;;;;;;7.33;3.33;;;;;-147.14;100.00;58812.66;6218487;22;45332;-59
2023/01/03 16:24:47;;;;;;;;;3.00;3.00;;;;;-147.14;100.00;58812.66;6245092;22;46818;-59
2023/01/03 16:27:21;;;;;;;;;4.00;3.67;;;;;-147.14;100.00;58812.66;6244703;22;52959;-60
2023/01/03 16:29:47;;;;;;;;;4.00;4.00;;;;;-147.14;100.00;58812.66;6192787;22;45313;-60
2023/01/03 16:32:31;;;;;;;;;3.00;3.00;;;;;-147.14;100.00;58812.66;6243695;22;47638;-61
2023/01/03 16:35:03;;;;;;;;;6.33;3.00;;;;;-147.14;100.00;58812.66;6245139;22;58592;-60
2023/01/03 16:37:29;;;;;;;;;5.00;4.67;;;;;-147.14;100.00;58812.66;6245132;22;45616;-60
2023/01/03 16:39:54;;;;;;;;;4.00;4.00;;;;;-147.14;100.00;58812.66;6244020;22;45397;-59
2023/01/03 16:42:26;;;;;;;;;9.00;5.00;;;;;-147.14;100.00;58812.66;6245946;22;45554;-58
2023/01/03 16:44:52;;;;;;;;;4.00;3.67;;;;;-147.14;100.00;58812.66;6240177;22;46397;-59
2023/01/03 16:47:23;;;;;;;;;5.67;3.33;;;;;-147.14;100.00;58812.66;6242272;22;45307;-60
2023/01/03 16:49:55;;;;;;;;;2.67;2.67;;;;;-147.14;100.00;58812.66;6211868;22;45381;-60
2023/01/03 16:52:31;;;;;;;;;8.33;6.00;;;;;-147.14;100.00;58812.66;6218279;22;45495;-59
2023/01/03 16:55:05;;;;;;;;;7.00;5.33;;;;;-147.14;100.00;58812.66;6217714;22;46327;-60
2023/01/03 16:57:30;;;;;;;;;4.33;4.33;;;;;-147.14;100.00;58812.66;6217141;22;45379;-59
2023/01/03 16:59:56;;;;;;;;;6.00;6.00;;;;;-147.14;100.00;58812.66;6245459;22;45296;-60
2023/01/03 17:02:21;;;;;;;;;12.67;7.00;;;;;-147.14;100.00;58812.66;6244998;22;58011;-60
2023/01/03 17:04:47;;;;;;;;;8.00;6.00;;;;;-147.14;100.00;58812.66;6241465;22;67571;-60
2023/01/03 17:07:21;;;;;;;;;8.67;7.33;;;;;-147.14;100.00;58812.66;6244094;22;45483;-60
2023/01/03 17:09:49;;;;;;;;;6.67;6.00;;;;;-147.14;100.00;58812.66;6216847;22;45709;-60
2023/01/03 17:12:16;;;;;;;;;6.00;4.67;;;;;-147.14;100.00;58812.66;6216910;22;45311;-60
2023/01/03 17:14:42;;;;;;;;;5.67;5.00;;;;;-147.14;100.00;58812.66;6189125;22;46728;-60
2023/01/03 17:17:25;;;;;;;;;7.67;6.00;;;;;-147.14;100.00;58812.66;6244315;22;45392;-60
2023/01/03 17:19:50;;;;;;;;;7.00;5.67;;;;;-147.14;100.00;58812.66;6243682;22;45449;-59
2023/01/03 17:22:18;;;;;;;;;7.33;5.00;;;;;-147.14;100.00;58812.66;6244699;22;45276;-58
2023/01/03 17:24:44;;;;;;;;;4.67;4.67;;;;;-147.14;100.00;58812.66;6216210;22;46142;-58
2023/01/03 17:27:21;;;;;;;;;6.00;4.67;;;;;-147.14;100.00;58812.66;6217853;22;45387;-60
2023/01/03 17:29:48;;;;;;;;;4.33;4.33;;;;;-147.14;100.00;58812.66;6243682;22;45449;-61
2023/01/03 17:32:17;;;;;;;;;5.00;4.67;;;;;-147.14;100.00;58812.66;6244981;22;45242;-58
2023/01/03 17:34:43;;;;;;;;;6.33;6.33;;;;;-147.14;100.00;58812.66;6243552;22;46009;-59